Ana Sayfa
METAR-TAF:

METAR-TAF

Havaalanları :

Pittsburgh International Airport

Pittsburgh, Pensilvanya, Amerika Birleşik Devletleri

Enlem: 40-30-14N, Boylam: 080-15-59W, yükseklik: 366 m

Güncel hava durumu gözlemi

Rapor saat 15:51 UTC de 31 dakika önce yapıldı.
Rüzgar kuzeybatıdan 14 kt ve 24 kt'a kadar ani rüzgarlar
Sıcaklık 11°C
Nem 35%
Basınç 1017 hPa
Görüş mesafesi: 16.1 km
3500 ft yükseklikte az bulutlu

METAR: KPIT 021551Z 31014G24KT 10SM FEW035 11/M04 A3004 RMK AO2 PK WND 30028/1540 SLP183 T01111044

Saat: 12:22 (16:22 UTC)

Tahmin

Rapor saat 15:18 UTC de 1 saat ve 4 dakika önce yapıldı.
Ayın 02'si saat 15 UTC'den ayın 03'si saat 18 UTC'ye kadar geçerli Tahmin
Rüzgar kuzeybatıdan 12 kt ve 20 kt'a kadar ani rüzgarlar
Görüş mesafesi: 10 km
4000 ft yükseklikte parçalı bulutlu
Ayın 03'si saat 0100 UTC'den
Rüzgar kuzeybatıdan 6 kt
Görüş mesafesi: 10 km
Açık gökyüzü

TAF: KPIT 021518Z 0215/0318 32012G20KT P6SM SCT040 FM030100 32006KT P6SM SKC

4.000'den fazla havaalanı için hava durumu gözlemleri ve tahminleri (METAR ve TAF raporları).

Kullanılabilir istasyonlar harita üzerinde sarı ve kırmızı noktalarla gösterilir.

İstasyonun adını görmek için fareyi noktanın üzerinde gezdirin.

Sonrasında hava gözlem ve tahminlerini görmek için tıklayın.

Haritayı değiştirmek için: yaklaştırmak için siyah artı işaretli yeşil düğmeye ve uzaklaştırmak için de eksi işaretli düğmeye hızla tıklayın; bitişik haritalar için yeşil okları kullanın.


METAR-TAF: